sensor_id;sensor_type;location;lat;lon;timestamp;temperature;humidity
66568;DHT22;53422;49.296;6.900;2023-04-08T00:01:06;7.80;99.90
66568;DHT22;53422;49.296;6.900;2023-04-08T00:03:32;7.80;99.90
66568;DHT22;53422;49.296;6.900;2023-04-08T00:05:58;7.70;99.90
66568;DHT22;53422;49.296;6.900;2023-04-08T00:08:26;7.70;99.90
66568;DHT22;53422;49.296;6.900;2023-04-08T00:10:52;7.70;99.90
66568;DHT22;53422;49.296;6.900;2023-04-08T00:13:18;7.70;99.90
66568;DHT22;53422;49.296;6.900;2023-04-08T00:15:44;7.70;99.90
66568;DHT22;53422;49.296;6.900;2023-04-08T00:18:10;7.70;99.90
66568;DHT22;53422;49.296;6.900;2023-04-08T00:20:36;7.70;99.90
66568;DHT22;53422;49.296;6.900;2023-04-08T00:23:01;7.70;99.90
66568;DHT22;53422;49.296;6.900;2023-04-08T00:25:27;7.70;99.90
66568;DHT22;53422;49.296;6.900;2023-04-08T00:27:53;7.70;99.90
66568;DHT22;53422;49.296;6.900;2023-04-08T00:30:19;7.70;99.90
66568;DHT22;53422;49.296;6.900;2023-04-08T00:32:44;7.70;99.90
66568;DHT22;53422;49.296;6.900;2023-04-08T00:35:10;7.70;99.90
66568;DHT22;53422;49.296;6.900;2023-04-08T00:37:37;7.70;99.90
66568;DHT22;53422;49.296;6.900;2023-04-08T00:40:03;7.60;99.90
66568;DHT22;53422;49.296;6.900;2023-04-08T00:42:29;7.60;99.90
66568;DHT22;53422;49.296;6.900;2023-04-08T00:44:55;7.60;99.90
66568;DHT22;53422;49.296;6.900;2023-04-08T00:47:21;7.60;99.90
66568;DHT22;53422;49.296;6.900;2023-04-08T00:49:47;7.60;99.90
66568;DHT22;53422;49.296;6.900;2023-04-08T00:52:12;7.60;99.90
66568;DHT22;53422;49.296;6.900;2023-04-08T00:54:38;7.60;99.90
66568;DHT22;53422;49.296;6.900;2023-04-08T00:57:04;7.50;99.90
66568;DHT22;53422;49.296;6.900;2023-04-08T00:59:30;7.50;99.90
66568;DHT22;53422;49.296;6.900;2023-04-08T01:02:16;7.50;99.90
66568;DHT22;53422;49.296;6.900;2023-04-08T01:07:33;7.50;99.90
66568;DHT22;53422;49.296;6.900;2023-04-08T01:10:06;7.50;99.90
66568;DHT22;53422;49.296;6.900;2023-04-08T01:12:43;7.50;99.90
66568;DHT22;53422;49.296;6.900;2023-04-08T01:15:13;7.40;99.90
66568;DHT22;53422;49.296;6.900;2023-04-08T01:17:39;7.40;99.90
66568;DHT22;53422;49.296;6.900;2023-04-08T01:20:06;7.40;99.90
66568;DHT22;53422;49.296;6.900;2023-04-08T01:22:45;7.40;99.90
66568;DHT22;53422;49.296;6.900;2023-04-08T01:25:22;7.40;99.90
66568;DHT22;53422;49.296;6.900;2023-04-08T01:27:49;7.40;99.90
66568;DHT22;53422;49.296;6.900;2023-04-08T01:30:18;7.40;99.90
66568;DHT22;53422;49.296;6.900;2023-04-08T01:32:45;7.40;99.90
66568;DHT22;53422;49.296;6.900;2023-04-08T01:35:13;7.40;99.90
66568;DHT22;53422;49.296;6.900;2023-04-08T01:37:41;7.40;99.90
66568;DHT22;53422;49.296;6.900;2023-04-08T01:40:08;7.40;99.90
66568;DHT22;53422;49.296;6.900;2023-04-08T01:42:34;7.40;99.90
66568;DHT22;53422;49.296;6.900;2023-04-08T01:45:02;7.40;99.90
66568;DHT22;53422;49.296;6.900;2023-04-08T01:47:29;7.40;99.90
66568;DHT22;53422;49.296;6.900;2023-04-08T01:49:55;7.40;99.90
66568;DHT22;53422;49.296;6.900;2023-04-08T01:52:22;7.30;99.90
66568;DHT22;53422;49.296;6.900;2023-04-08T01:54:49;7.30;99.90
66568;DHT22;53422;49.296;6.900;2023-04-08T01:57:21;7.40;99.90
66568;DHT22;53422;49.296;6.900;2023-04-08T01:59:50;7.30;99.90
66568;DHT22;53422;49.296;6.900;2023-04-08T02:02:19;7.30;99.90
66568;DHT22;53422;49.296;6.900;2023-04-08T02:04:45;7.30;99.90
66568;DHT22;53422;49.296;6.900;2023-04-08T02:07:11;7.40;99.90
66568;DHT22;53422;49.296;6.900;2023-04-08T02:09:37;7.30;99.90
66568;DHT22;53422;49.296;6.900;2023-04-08T02:12:03;7.30;99.90
66568;DHT22;53422;49.296;6.900;2023-04-08T02:14:28;7.30;99.90
66568;DHT22;53422;49.296;6.900;2023-04-08T02:22:48;7.30;99.90
66568;DHT22;53422;49.296;6.900;2023-04-08T02:25:15;7.30;99.90
66568;DHT22;53422;49.296;6.900;2023-04-08T02:27:42;7.30;99.90
66568;DHT22;53422;49.296;6.900;2023-04-08T02:30:10;7.30;99.90
66568;DHT22;53422;49.296;6.900;2023-04-08T02:32:36;7.30;99.90
66568;DHT22;53422;49.296;6.900;2023-04-08T02:35:04;7.30;99.90
66568;DHT22;53422;49.296;6.900;2023-04-08T02:37:30;7.30;99.90
66568;DHT22;53422;49.296;6.900;2023-04-08T02:39:57;7.30;99.90
66568;DHT22;53422;49.296;6.900;2023-04-08T02:42:22;7.30;99.90
66568;DHT22;53422;49.296;6.900;2023-04-08T02:44:48;7.30;99.90
66568;DHT22;53422;49.296;6.900;2023-04-08T02:47:14;7.30;99.90
66568;DHT22;53422;49.296;6.900;2023-04-08T02:49:39;7.30;99.90
66568;DHT22;53422;49.296;6.900;2023-04-08T02:52:05;7.30;99.90
66568;DHT22;53422;49.296;6.900;2023-04-08T02:54:31;7.30;99.90
66568;DHT22;53422;49.296;6.900;2023-04-08T02:56:56;7.30;99.90
66568;DHT22;53422;49.296;6.900;2023-04-08T02:59:22;7.30;99.90
66568;DHT22;53422;49.296;6.900;2023-04-08T03:01:48;7.30;99.90
66568;DHT22;53422;49.296;6.900;2023-04-08T03:04:13;7.30;99.90
66568;DHT22;53422;49.296;6.900;2023-04-08T03:06:39;7.30;99.90
66568;DHT22;53422;49.296;6.900;2023-04-08T03:09:05;7.30;99.90
66568;DHT22;53422;49.296;6.900;2023-04-08T03:11:31;7.30;99.90
66568;DHT22;53422;49.296;6.900;2023-04-08T03:13:57;7.30;99.90
66568;DHT22;53422;49.296;6.900;2023-04-08T03:16:23;7.30;99.90
66568;DHT22;53422;49.296;6.900;2023-04-08T03:18:49;7.30;99.90
66568;DHT22;53422;49.296;6.900;2023-04-08T03:21:15;7.30;99.90
66568;DHT22;53422;49.296;6.900;2023-04-08T03:23:41;7.30;99.90
66568;DHT22;53422;49.296;6.900;2023-04-08T03:26:07;7.30;99.90
66568;DHT22;53422;49.296;6.900;2023-04-08T03:28:32;7.30;99.90
66568;DHT22;53422;49.296;6.900;2023-04-08T03:30:58;7.30;99.90
66568;DHT22;53422;49.296;6.900;2023-04-08T03:33:25;7.40;99.90
66568;DHT22;53422;49.296;6.900;2023-04-08T03:35:52;7.30;99.90
66568;DHT22;53422;49.296;6.900;2023-04-08T03:38:18;7.30;99.90
66568;DHT22;53422;49.296;6.900;2023-04-08T03:40:44;7.30;99.90
66568;DHT22;53422;49.296;6.900;2023-04-08T03:43:10;7.30;99.90
66568;DHT22;53422;49.296;6.900;2023-04-08T03:45:36;7.30;99.90
66568;DHT22;53422;49.296;6.900;2023-04-08T03:48:02;7.30;99.90
66568;DHT22;53422;49.296;6.900;2023-04-08T03:50:28;7.30;99.90
66568;DHT22;53422;49.296;6.900;2023-04-08T03:52:54;7.30;99.90
66568;DHT22;53422;49.296;6.900;2023-04-08T03:55:20;7.30;99.90
66568;DHT22;53422;49.296;6.900;2023-04-08T03:57:45;7.30;99.90
66568;DHT22;53422;49.296;6.900;2023-04-08T04:00:11;7.30;99.90
66568;DHT22;53422;49.296;6.900;2023-04-08T04:02:37;7.30;99.90
66568;DHT22;53422;49.296;6.900;2023-04-08T04:05:03;7.30;99.90
66568;DHT22;53422;49.296;6.900;2023-04-08T04:07:28;7.30;99.90
66568;DHT22;53422;49.296;6.900;2023-04-08T04:09:54;7.30;99.90
66568;DHT22;53422;49.296;6.900;2023-04-08T04:12:22;7.30;99.90
66568;DHT22;53422;49.296;6.900;2023-04-08T04:14:48;7.30;99.90
66568;DHT22;53422;49.296;6.900;2023-04-08T04:17:13;7.40;99.90
66568;DHT22;53422;49.296;6.900;2023-04-08T04:19:39;7.30;99.90
66568;DHT22;53422;49.296;6.900;2023-04-08T04:22:05;7.30;99.90
66568;DHT22;53422;49.296;6.900;2023-04-08T04:24:31;7.40;99.90
66568;DHT22;53422;49.296;6.900;2023-04-08T04:26:56;7.40;99.90
66568;DHT22;53422;49.296;6.900;2023-04-08T04:29:22;7.40;99.90
66568;DHT22;53422;49.296;6.900;2023-04-08T04:31:47;7.40;99.90
66568;DHT22;53422;49.296;6.900;2023-04-08T04:34:13;7.40;99.90
66568;DHT22;53422;49.296;6.900;2023-04-08T04:36:39;7.40;99.90
66568;DHT22;53422;49.296;6.900;2023-04-08T04:39:04;7.40;99.90
66568;DHT22;53422;49.296;6.900;2023-04-08T04:41:30;7.40;99.90
66568;DHT22;53422;49.296;6.900;2023-04-08T04:43:56;7.40;99.90
66568;DHT22;53422;49.296;6.900;2023-04-08T04:46:21;7.40;99.90
66568;DHT22;53422;49.296;6.900;2023-04-08T04:48:47;7.40;99.90
66568;DHT22;53422;49.296;6.900;2023-04-08T04:51:13;7.40;99.90
66568;DHT22;53422;49.296;6.900;2023-04-08T04:53:38;7.40;99.90
66568;DHT22;53422;49.296;6.900;2023-04-08T04:56:04;7.40;99.90
66568;DHT22;53422;49.296;6.900;2023-04-08T04:58:30;7.40;99.90
66568;DHT22;53422;49.296;6.900;2023-04-08T05:00:56;7.40;99.90
66568;DHT22;53422;49.296;6.900;2023-04-08T05:03:22;7.40;99.90
66568;DHT22;53422;49.296;6.900;2023-04-08T05:05:52;7.40;99.90
66568;DHT22;53422;49.296;6.900;2023-04-08T05:08:18;7.40;99.90
66568;DHT22;53422;49.296;6.900;2023-04-08T05:10:44;7.40;99.90
66568;DHT22;53422;49.296;6.900;2023-04-08T05:13:09;7.40;99.90
66568;DHT22;53422;49.296;6.900;2023-04-08T05:15:35;7.40;99.90
66568;DHT22;53422;49.296;6.900;2023-04-08T05:18:01;7.40;99.90
66568;DHT22;53422;49.296;6.900;2023-04-08T05:20:27;7.40;99.90
66568;DHT22;53422;49.296;6.900;2023-04-08T05:22:52;7.40;99.90
66568;DHT22;53422;49.296;6.900;2023-04-08T05:25:18;7.40;99.90
66568;DHT22;53422;49.296;6.900;2023-04-08T05:27:44;7.40;99.90
66568;DHT22;53422;49.296;6.900;2023-04-08T05:30:10;7.40;99.90
66568;DHT22;53422;49.296;6.900;2023-04-08T05:32:36;7.30;99.90
66568;DHT22;53422;49.296;6.900;2023-04-08T05:35:02;7.30;99.90
66568;DHT22;53422;49.296;6.900;2023-04-08T05:37:28;7.40;99.90
66568;DHT22;53422;49.296;6.900;2023-04-08T05:39:54;7.40;99.90
66568;DHT22;53422;49.296;6.900;2023-04-08T05:42:19;7.40;99.90
66568;DHT22;53422;49.296;6.900;2023-04-08T05:44:45;7.40;99.90
66568;DHT22;53422;49.296;6.900;2023-04-08T05:47:10;7.30;99.90
66568;DHT22;53422;49.296;6.900;2023-04-08T05:49:36;7.30;99.90
66568;DHT22;53422;49.296;6.900;2023-04-08T05:52:02;7.30;99.90
66568;DHT22;53422;49.296;6.900;2023-04-08T05:54:28;7.30;99.90
66568;DHT22;53422;49.296;6.900;2023-04-08T05:56:54;7.30;99.90
66568;DHT22;53422;49.296;6.900;2023-04-08T05:59:19;7.30;99.90
66568;DHT22;53422;49.296;6.900;2023-04-08T06:01:45;7.40;99.90
66568;DHT22;53422;49.296;6.900;2023-04-08T06:04:11;7.40;99.90
66568;DHT22;53422;49.296;6.900;2023-04-08T06:06:37;7.40;99.90
66568;DHT22;53422;49.296;6.900;2023-04-08T06:09:04;7.40;99.90
66568;DHT22;53422;49.296;6.900;2023-04-08T06:11:30;7.40;99.90
66568;DHT22;53422;49.296;6.900;2023-04-08T06:13:56;7.40;99.90
66568;DHT22;53422;49.296;6.900;2023-04-08T06:16:21;7.40;99.90
66568;DHT22;53422;49.296;6.900;2023-04-08T06:18:47;7.40;99.90
66568;DHT22;53422;49.296;6.900;2023-04-08T06:21:16;7.40;99.90
66568;DHT22;53422;49.296;6.900;2023-04-08T06:23:42;7.40;99.90
66568;DHT22;53422;49.296;6.900;2023-04-08T06:26:08;7.40;99.90
66568;DHT22;53422;49.296;6.900;2023-04-08T06:28:33;7.40;99.90
66568;DHT22;53422;49.296;6.900;2023-04-08T06:30:59;7.40;99.90
66568;DHT22;53422;49.296;6.900;2023-04-08T06:33:25;7.40;99.90
66568;DHT22;53422;49.296;6.900;2023-04-08T06:35:50;7.40;99.90
66568;DHT22;53422;49.296;6.900;2023-04-08T06:38:16;7.40;99.90
66568;DHT22;53422;49.296;6.900;2023-04-08T06:40:42;7.50;99.90
66568;DHT22;53422;49.296;6.900;2023-04-08T06:43:07;7.50;99.90
66568;DHT22;53422;49.296;6.900;2023-04-08T06:45:33;7.50;99.90
66568;DHT22;53422;49.296;6.900;2023-04-08T06:47:59;7.50;99.90
66568;DHT22;53422;49.296;6.900;2023-04-08T06:50:25;7.50;99.90
66568;DHT22;53422;49.296;6.900;2023-04-08T06:52:51;7.60;99.90
66568;DHT22;53422;49.296;6.900;2023-04-08T06:55:17;7.60;99.90
66568;DHT22;53422;49.296;6.900;2023-04-08T06:57:42;7.60;99.90
66568;DHT22;53422;49.296;6.900;2023-04-08T07:00:09;7.70;99.90
66568;DHT22;53422;49.296;6.900;2023-04-08T07:02:34;7.70;99.90
66568;DHT22;53422;49.296;6.900;2023-04-08T07:05:01;7.70;99.90
66568;DHT22;53422;49.296;6.900;2023-04-08T07:07:26;7.80;99.90
66568;DHT22;53422;49.296;6.900;2023-04-08T07:09:52;7.80;99.90
66568;DHT22;53422;49.296;6.900;2023-04-08T07:12:18;7.80;99.90
66568;DHT22;53422;49.296;6.900;2023-04-08T07:14:43;7.80;99.90
66568;DHT22;53422;49.296;6.900;2023-04-08T07:17:09;7.80;99.90
66568;DHT22;53422;49.296;6.900;2023-04-08T07:19:35;7.90;99.90
66568;DHT22;53422;49.296;6.900;2023-04-08T07:22:01;7.90;99.90
66568;DHT22;53422;49.296;6.900;2023-04-08T07:24:27;7.90;99.90
66568;DHT22;53422;49.296;6.900;2023-04-08T07:26:53;8.00;99.90
66568;DHT22;53422;49.296;6.900;2023-04-08T07:29:20;8.00;99.90
66568;DHT22;53422;49.296;6.900;2023-04-08T07:31:46;8.10;99.90
66568;DHT22;53422;49.296;6.900;2023-04-08T07:34:11;8.10;99.90
66568;DHT22;53422;49.296;6.900;2023-04-08T07:36:37;8.20;99.90
66568;DHT22;53422;49.296;6.900;2023-04-08T07:39:03;8.20;99.90
66568;DHT22;53422;49.296;6.900;2023-04-08T07:41:29;8.20;99.90
66568;DHT22;53422;49.296;6.900;2023-04-08T07:43:55;8.30;99.90
66568;DHT22;53422;49.296;6.900;2023-04-08T07:46:20;8.30;99.90
66568;DHT22;53422;49.296;6.900;2023-04-08T07:48:46;8.40;99.90
66568;DHT22;53422;49.296;6.900;2023-04-08T07:51:12;8.40;99.90
66568;DHT22;53422;49.296;6.900;2023-04-08T07:53:38;8.50;99.90
66568;DHT22;53422;49.296;6.900;2023-04-08T07:56:14;8.50;99.90
66568;DHT22;53422;49.296;6.900;2023-04-08T07:58:40;8.50;99.90
66568;DHT22;53422;49.296;6.900;2023-04-08T08:01:20;8.50;99.90
66568;DHT22;53422;49.296;6.900;2023-04-08T08:03:50;8.60;99.90
66568;DHT22;53422;49.296;6.900;2023-04-08T08:06:15;8.70;99.90
66568;DHT22;53422;49.296;6.900;2023-04-08T08:08:41;8.80;99.90
66568;DHT22;53422;49.296;6.900;2023-04-08T08:11:07;8.90;99.90
66568;DHT22;53422;49.296;6.900;2023-04-08T08:13:33;8.90;99.90
66568;DHT22;53422;49.296;6.900;2023-04-08T08:15:59;8.90;99.90
66568;DHT22;53422;49.296;6.900;2023-04-08T08:18:25;8.90;99.90
66568;DHT22;53422;49.296;6.900;2023-04-08T08:20:51;9.00;99.90
66568;DHT22;53422;49.296;6.900;2023-04-08T08:23:17;9.10;99.90
66568;DHT22;53422;49.296;6.900;2023-04-08T08:25:42;9.10;99.90
66568;DHT22;53422;49.296;6.900;2023-04-08T08:28:08;9.20;99.90
66568;DHT22;53422;49.296;6.900;2023-04-08T08:30:34;9.20;99.90
66568;DHT22;53422;49.296;6.900;2023-04-08T08:32:59;9.20;99.90
66568;DHT22;53422;49.296;6.900;2023-04-08T08:35:25;9.30;99.90
66568;DHT22;53422;49.296;6.900;2023-04-08T08:37:51;9.30;99.90
66568;DHT22;53422;49.296;6.900;2023-04-08T08:40:17;9.40;99.90
66568;DHT22;53422;49.296;6.900;2023-04-08T08:42:49;9.40;99.90
66568;DHT22;53422;49.296;6.900;2023-04-08T08:45:18;9.50;99.90
66568;DHT22;53422;49.296;6.900;2023-04-08T08:47:44;9.50;99.90
66568;DHT22;53422;49.296;6.900;2023-04-08T08:50:09;9.60;99.90
66568;DHT22;53422;49.296;6.900;2023-04-08T08:52:35;9.60;99.90
66568;DHT22;53422;49.296;6.900;2023-04-08T08:55:01;9.70;99.90
66568;DHT22;53422;49.296;6.900;2023-04-08T08:57:26;9.70;99.90
66568;DHT22;53422;49.296;6.900;2023-04-08T08:59:52;9.80;99.90
66568;DHT22;53422;49.296;6.900;2023-04-08T09:02:26;9.90;99.90
66568;DHT22;53422;49.296;6.900;2023-04-08T09:05:00;9.90;99.90
66568;DHT22;53422;49.296;6.900;2023-04-08T09:07:27;10.00;99.90
66568;DHT22;53422;49.296;6.900;2023-04-08T09:09:54;10.00;99.90
66568;DHT22;53422;49.296;6.900;2023-04-08T09:12:20;10.00;99.90
66568;DHT22;53422;49.296;6.900;2023-04-08T09:14:46;10.20;99.90
66568;DHT22;53422;49.296;6.900;2023-04-08T09:17:13;10.10;99.90
66568;DHT22;53422;49.296;6.900;2023-04-08T09:19:39;10.10;99.90
66568;DHT22;53422;49.296;6.900;2023-04-08T09:24:31;10.30;99.90
66568;DHT22;53422;49.296;6.900;2023-04-08T09:26:57;10.30;99.90
66568;DHT22;53422;49.296;6.900;2023-04-08T09:29:23;10.40;99.90
66568;DHT22;53422;49.296;6.900;2023-04-08T09:31:54;10.40;99.90
66568;DHT22;53422;49.296;6.900;2023-04-08T09:34:20;10.40;99.90
66568;DHT22;53422;49.296;6.900;2023-04-08T09:36:48;10.40;99.90
66568;DHT22;53422;49.296;6.900;2023-04-08T09:39:14;10.50;99.90
66568;DHT22;53422;49.296;6.900;2023-04-08T09:41:41;10.60;99.90
66568;DHT22;53422;49.296;6.900;2023-04-08T09:44:08;10.70;99.90
66568;DHT22;53422;49.296;6.900;2023-04-08T09:51:58;10.70;99.90
66568;DHT22;53422;49.296;6.900;2023-04-08T09:57:19;10.90;99.90
66568;DHT22;53422;49.296;6.900;2023-04-08T09:59:55;11.00;99.90
66568;DHT22;53422;49.296;6.900;2023-04-08T10:02:29;11.10;99.90
66568;DHT22;53422;49.296;6.900;2023-04-08T10:04:58;11.30;99.90
66568;DHT22;53422;49.296;6.900;2023-04-08T10:07:24;11.30;99.90
66568;DHT22;53422;49.296;6.900;2023-04-08T10:09:50;11.40;99.90
66568;DHT22;53422;49.296;6.900;2023-04-08T10:12:16;11.50;99.90
66568;DHT22;53422;49.296;6.900;2023-04-08T10:17:47;11.70;99.90
66568;DHT22;53422;49.296;6.900;2023-04-08T10:23:08;12.50;99.90
66568;DHT22;53422;49.296;6.900;2023-04-08T10:25:36;12.40;99.90
66568;DHT22;53422;49.296;6.900;2023-04-08T10:30:45;12.30;99.90
66568;DHT22;53422;49.296;6.900;2023-04-08T10:35:46;12.40;99.90
66568;DHT22;53422;49.296;6.900;2023-04-08T10:38:13;12.50;99.90
66568;DHT22;53422;49.296;6.900;2023-04-08T10:40:40;12.60;99.90
66568;DHT22;53422;49.296;6.900;2023-04-08T10:43:08;12.60;99.90
66568;DHT22;53422;49.296;6.900;2023-04-08T10:45:34;12.70;99.90
66568;DHT22;53422;49.296;6.900;2023-04-08T10:50:52;12.90;99.90
66568;DHT22;53422;49.296;6.900;2023-04-08T10:53:33;13.00;99.90
66568;DHT22;53422;49.296;6.900;2023-04-08T10:56:13;12.90;99.90
66568;DHT22;53422;49.296;6.900;2023-04-08T10:58:51;12.90;99.90
66568;DHT22;53422;49.296;6.900;2023-04-08T11:01:18;13.20;99.90
66568;DHT22;53422;49.296;6.900;2023-04-08T11:03:43;13.30;99.90
66568;DHT22;53422;49.296;6.900;2023-04-08T11:06:10;13.30;99.90
66568;DHT22;53422;49.296;6.900;2023-04-08T11:08:36;13.40;99.90
66568;DHT22;53422;49.296;6.900;2023-04-08T11:11:02;13.40;99.90
66568;DHT22;53422;49.296;6.900;2023-04-08T11:13:30;13.50;99.90
66568;DHT22;53422;49.296;6.900;2023-04-08T11:15:59;13.70;99.90
66568;DHT22;53422;49.296;6.900;2023-04-08T11:18:25;13.80;99.90
66568;DHT22;53422;49.296;6.900;2023-04-08T11:20:52;13.70;99.90
66568;DHT22;53422;49.296;6.900;2023-04-08T11:23:18;13.70;99.90
66568;DHT22;53422;49.296;6.900;2023-04-08T11:25:45;13.70;99.90
66568;DHT22;53422;49.296;6.900;2023-04-08T11:28:12;13.70;99.90
66568;DHT22;53422;49.296;6.900;2023-04-08T11:30:41;13.70;99.90
66568;DHT22;53422;49.296;6.900;2023-04-08T11:33:07;13.70;99.90
66568;DHT22;53422;49.296;6.900;2023-04-08T11:35:33;13.90;99.90
66568;DHT22;53422;49.296;6.900;2023-04-08T11:38:01;13.90;99.90
66568;DHT22;53422;49.296;6.900;2023-04-08T11:40:28;13.80;99.90
66568;DHT22;53422;49.296;6.900;2023-04-08T11:42:54;13.80;99.90
66568;DHT22;53422;49.296;6.900;2023-04-08T11:45:20;13.90;98.20
66568;DHT22;53422;49.296;6.900;2023-04-08T11:47:47;14.10;93.90
66568;DHT22;53422;49.296;6.900;2023-04-08T11:50:24;14.30;88.60
66568;DHT22;53422;49.296;6.900;2023-04-08T11:52:51;14.40;87.20
66568;DHT22;53422;49.296;6.900;2023-04-08T11:55:31;14.40;86.10
66568;DHT22;53422;49.296;6.900;2023-04-08T11:58:02;14.30;92.90
66568;DHT22;53422;49.296;6.900;2023-04-08T12:00:28;14.20;95.40
66568;DHT22;53422;49.296;6.900;2023-04-08T12:02:55;14.30;93.30
66568;DHT22;53422;49.296;6.900;2023-04-08T12:05:21;14.10;72.60
66568;DHT22;53422;49.296;6.900;2023-04-08T12:07:46;13.90;85.70
66568;DHT22;53422;49.296;6.900;2023-04-08T12:10:12;14.00;90.50
66568;DHT22;53422;49.296;6.900;2023-04-08T12:12:39;14.10;87.30
66568;DHT22;53422;49.296;6.900;2023-04-08T12:15:05;14.00;82.40
66568;DHT22;53422;49.296;6.900;2023-04-08T12:17:32;14.00;90.20
66568;DHT22;53422;49.296;6.900;2023-04-08T12:19:58;14.10;84.60
66568;DHT22;53422;49.296;6.900;2023-04-08T12:22:23;14.20;84.50
66568;DHT22;53422;49.296;6.900;2023-04-08T12:24:49;14.00;92.50
66568;DHT22;53422;49.296;6.900;2023-04-08T12:27:15;13.90;93.50
66568;DHT22;53422;49.296;6.900;2023-04-08T12:29:41;13.90;93.70
66568;DHT22;53422;49.296;6.900;2023-04-08T12:32:07;13.80;93.80
66568;DHT22;53422;49.296;6.900;2023-04-08T12:34:33;13.70;92.90
66568;DHT22;53422;49.296;6.900;2023-04-08T12:36:59;13.70;91.60
66568;DHT22;53422;49.296;6.900;2023-04-08T12:39:25;13.60;93.20
66568;DHT22;53422;49.296;6.900;2023-04-08T12:41:50;13.50;95.50
66568;DHT22;53422;49.296;6.900;2023-04-08T12:44:16;13.40;95.30
66568;DHT22;53422;49.296;6.900;2023-04-08T12:46:41;13.40;95.40
66568;DHT22;53422;49.296;6.900;2023-04-08T12:49:07;13.40;95.90
66568;DHT22;53422;49.296;6.900;2023-04-08T12:51:33;13.40;94.50
66568;DHT22;53422;49.296;6.900;2023-04-08T12:54:01;13.40;95.10
66568;DHT22;53422;49.296;6.900;2023-04-08T12:56:27;13.40;93.10
66568;DHT22;53422;49.296;6.900;2023-04-08T12:58:53;13.40;94.50
66568;DHT22;53422;49.296;6.900;2023-04-08T13:01:20;13.30;96.80
66568;DHT22;53422;49.296;6.900;2023-04-08T13:03:45;13.30;96.70
66568;DHT22;53422;49.296;6.900;2023-04-08T13:06:12;13.30;90.90
66568;DHT22;53422;49.296;6.900;2023-04-08T13:08:37;13.40;86.40
66568;DHT22;53422;49.296;6.900;2023-04-08T13:11:03;13.40;88.10
66568;DHT22;53422;49.296;6.900;2023-04-08T13:13:29;13.50;87.80
66568;DHT22;53422;49.296;6.900;2023-04-08T13:15:54;13.40;86.40
66568;DHT22;53422;49.296;6.900;2023-04-08T13:18:21;13.40;87.20
66568;DHT22;53422;49.296;6.900;2023-04-08T13:20:46;13.20;81.80
66568;DHT22;53422;49.296;6.900;2023-04-08T13:23:12;13.10;89.00
66568;DHT22;53422;49.296;6.900;2023-04-08T13:25:39;13.10;89.10
66568;DHT22;53422;49.296;6.900;2023-04-08T13:28:05;13.00;90.50
66568;DHT22;53422;49.296;6.900;2023-04-08T13:30:31;12.80;85.80
66568;DHT22;53422;49.296;6.900;2023-04-08T13:32:56;12.70;87.50
66568;DHT22;53422;49.296;6.900;2023-04-08T13:35:22;12.70;84.90
66568;DHT22;53422;49.296;6.900;2023-04-08T13:37:48;12.60;87.30
66568;DHT22;53422;49.296;6.900;2023-04-08T13:40:13;12.70;88.90
66568;DHT22;53422;49.296;6.900;2023-04-08T13:42:39;12.70;84.30
66568;DHT22;53422;49.296;6.900;2023-04-08T13:45:06;12.80;90.30
66568;DHT22;53422;49.296;6.900;2023-04-08T13:47:32;12.90;86.80
66568;DHT22;53422;49.296;6.900;2023-04-08T13:49:57;12.90;85.40
66568;DHT22;53422;49.296;6.900;2023-04-08T13:52:23;12.90;82.80
66568;DHT22;53422;49.296;6.900;2023-04-08T13:54:49;12.90;80.70
66568;DHT22;53422;49.296;6.900;2023-04-08T13:57:14;12.90;85.70
66568;DHT22;53422;49.296;6.900;2023-04-08T13:59:40;12.90;80.60
66568;DHT22;53422;49.296;6.900;2023-04-08T14:02:06;13.00;78.70
66568;DHT22;53422;49.296;6.900;2023-04-08T14:04:31;12.90;79.70
66568;DHT22;53422;49.296;6.900;2023-04-08T14:06:57;12.70;77.40
66568;DHT22;53422;49.296;6.900;2023-04-08T14:09:23;12.80;80.40
66568;DHT22;53422;49.296;6.900;2023-04-08T14:11:49;12.80;85.30
66568;DHT22;53422;49.296;6.900;2023-04-08T14:14:15;12.70;78.70
66568;DHT22;53422;49.296;6.900;2023-04-08T14:16:41;12.70;79.60
66568;DHT22;53422;49.296;6.900;2023-04-08T14:19:07;12.80;82.50
66568;DHT22;53422;49.296;6.900;2023-04-08T14:21:33;12.80;82.20
66568;DHT22;53422;49.296;6.900;2023-04-08T14:23:59;12.80;79.80
66568;DHT22;53422;49.296;6.900;2023-04-08T14:26:25;12.80;79.80
66568;DHT22;53422;49.296;6.900;2023-04-08T14:28:51;12.80;82.90
66568;DHT22;53422;49.296;6.900;2023-04-08T14:31:17;12.80;84.20
66568;DHT22;53422;49.296;6.900;2023-04-08T14:33:42;12.90;79.20
66568;DHT22;53422;49.296;6.900;2023-04-08T14:36:08;12.90;85.10
66568;DHT22;53422;49.296;6.900;2023-04-08T14:38:35;12.80;82.80
66568;DHT22;53422;49.296;6.900;2023-04-08T14:41:00;12.70;77.60
66568;DHT22;53422;49.296;6.900;2023-04-08T14:43:26;12.80;80.10
66568;DHT22;53422;49.296;6.900;2023-04-08T14:45:52;12.80;73.60
66568;DHT22;53422;49.296;6.900;2023-04-08T14:48:18;12.80;73.10
66568;DHT22;53422;49.296;6.900;2023-04-08T14:50:44;12.70;71.10
66568;DHT22;53422;49.296;6.900;2023-04-08T14:53:10;12.80;72.00
66568;DHT22;53422;49.296;6.900;2023-04-08T14:55:37;12.70;71.70
66568;DHT22;53422;49.296;6.900;2023-04-08T14:58:03;12.60;69.40
66568;DHT22;53422;49.296;6.900;2023-04-08T15:00:29;12.60;67.90
66568;DHT22;53422;49.296;6.900;2023-04-08T15:02:55;12.50;64.00
66568;DHT22;53422;49.296;6.900;2023-04-08T15:05:20;12.50;68.60
66568;DHT22;53422;49.296;6.900;2023-04-08T15:07:47;12.60;65.30
66568;DHT22;53422;49.296;6.900;2023-04-08T15:10:13;12.60;67.70
66568;DHT22;53422;49.296;6.900;2023-04-08T15:12:38;12.60;67.10
66568;DHT22;53422;49.296;6.900;2023-04-08T15:15:04;12.60;66.70
66568;DHT22;53422;49.296;6.900;2023-04-08T15:17:31;12.80;69.80
66568;DHT22;53422;49.296;6.900;2023-04-08T15:19:58;12.80;70.00
66568;DHT22;53422;49.296;6.900;2023-04-08T15:22:23;12.80;72.00
66568;DHT22;53422;49.296;6.900;2023-04-08T15:24:49;12.80;71.80
66568;DHT22;53422;49.296;6.900;2023-04-08T15:27:15;12.80;71.90
66568;DHT22;53422;49.296;6.900;2023-04-08T15:29:41;12.80;71.90
66568;DHT22;53422;49.296;6.900;2023-04-08T15:32:07;12.80;73.10
66568;DHT22;53422;49.296;6.900;2023-04-08T15:34:32;12.80;74.20
66568;DHT22;53422;49.296;6.900;2023-04-08T15:36:58;12.80;73.50
66568;DHT22;53422;49.296;6.900;2023-04-08T15:39:24;12.80;71.50
66568;DHT22;53422;49.296;6.900;2023-04-08T15:41:49;12.70;74.30
66568;DHT22;53422;49.296;6.900;2023-04-08T15:44:15;12.70;73.10
66568;DHT22;53422;49.296;6.900;2023-04-08T15:46:41;12.70;74.20
66568;DHT22;53422;49.296;6.900;2023-04-08T15:49:07;12.80;75.30
66568;DHT22;53422;49.296;6.900;2023-04-08T15:51:33;12.70;71.60
66568;DHT22;53422;49.296;6.900;2023-04-08T15:53:59;12.60;72.60
66568;DHT22;53422;49.296;6.900;2023-04-08T15:56:25;12.60;71.10
66568;DHT22;53422;49.296;6.900;2023-04-08T15:58:54;12.60;72.80
66568;DHT22;53422;49.296;6.900;2023-04-08T16:01:21;12.60;71.40
66568;DHT22;53422;49.296;6.900;2023-04-08T16:03:47;12.60;71.70
66568;DHT22;53422;49.296;6.900;2023-04-08T16:06:12;12.50;72.20
66568;DHT22;53422;49.296;6.900;2023-04-08T16:08:39;12.60;70.70